Time;durP1;ratioP1;P1;durP2;ratioP2;P2;SDS_P1;SDS_P2;PMS_P1;PMS_P2;Temp;Humidity;BMP_temperature;BMP_pressure;BME280_temperature;BME280_humidity;BME280_pressure;Samples;Min_cycle;Max_cycle;Signal;HPM_P1;HPM_P2
2023/06/27 00:00:12;;;;;;;6.30;2.33;;;20.10;52.40;;;19.65;56.95;96168.13;4967638;28;20459;-65
2023/06/27 00:02:41;;;;;;;5.43;2.72;;;20.10;52.40;;;19.56;56.16;96171.22;4975430;28;20383;-66
2023/06/27 00:05:08;;;;;;;5.40;3.05;;;20.10;52.70;;;19.53;57.41;96181.53;4992503;28;20050;-66
2023/06/27 00:07:33;;;;;;;6.25;2.50;;;20.10;52.80;;;19.49;56.38;96181.22;4949819;28;20034;-65
2023/06/27 00:09:59;;;;;;;7.93;2.53;;;20.10;52.70;;;19.45;56.39;96182.72;4985831;28;20088;-66
2023/06/27 00:12:25;;;;;;;6.85;2.70;;;19.90;53.10;;;19.41;57.61;96184.28;4959235;28;20158;-65
2023/06/27 00:14:50;;;;;;;5.68;2.60;;;20.00;53.10;;;19.39;57.67;96202.38;4981343;28;20486;-66
2023/06/27 00:17:16;;;;;;;6.35;2.30;;;20.00;53.30;;;19.35;58.12;96195.09;4964359;28;20046;-65
2023/06/27 00:19:47;;;;;;;6.55;2.38;;;20.00;53.30;;;19.30;58.08;96190.50;4982693;28;20058;-66
2023/06/27 00:22:14;;;;;;;5.30;2.25;;;20.00;53.40;;;19.28;57.68;96195.28;4959000;28;20157;-66
2023/06/27 00:24:39;;;;;;;4.32;2.22;;;20.00;53.50;;;19.23;58.92;96203.16;4968930;28;20097;-68
2023/06/27 00:27:05;;;;;;;3.60;2.30;;;19.90;53.80;;;19.19;58.64;96197.50;4991119;28;20498;-66
2023/06/27 00:29:32;;;;;;;6.32;2.38;;;19.90;53.80;;;19.16;58.68;96192.66;4990632;28;20038;-65
2023/06/27 00:31:58;;;;;;;7.95;2.80;;;19.80;53.60;;;19.14;58.29;96193.94;4977621;28;20050;-66
2023/06/27 00:34:23;;;;;;;6.72;2.20;;;19.70;53.80;;;19.06;57.66;96202.34;4985022;28;20495;-66
2023/06/27 00:36:49;;;;;;;5.55;2.38;;;19.60;54.00;;;19.03;58.17;96187.66;4974205;28;20510;-66
2023/06/27 00:39:15;;;;;;;4.82;2.22;;;19.60;53.80;;;18.94;58.54;96197.88;4978772;28;20026;-66
2023/06/27 00:41:41;;;;;;;8.27;2.17;;;19.50;54.40;;;18.90;59.48;96199.41;4964415;28;20573;-65
2023/06/27 00:44:08;;;;;;;7.28;3.05;;;19.60;54.20;;;18.84;59.22;96195.03;4947821;28;20170;-65
2023/06/27 00:46:40;;;;;;;5.93;2.20;;;19.50;54.60;;;18.81;59.41;96200.84;4973169;28;20558;-66
2023/06/27 00:49:07;;;;;;;4.35;2.60;;;19.40;54.70;;;18.79;59.20;96202.13;4968005;28;20049;-66
2023/06/27 00:51:33;;;;;;;7.47;2.83;;;19.40;54.70;;;18.76;59.22;96200.72;4973739;28;20615;-67
2023/06/27 00:53:59;;;;;;;7.88;3.67;;;19.50;54.60;;;18.71;59.97;96205.16;4970966;28;20046;-66
2023/06/27 00:56:28;;;;;;;5.13;3.00;;;19.30;54.60;;;18.65;59.04;96205.06;4972171;28;20034;-66
2023/06/27 00:58:57;;;;;;;5.80;2.60;;;19.30;54.70;;;18.60;59.85;96212.13;4990018;28;20025;-66
2023/06/27 01:01:23;;;;;;;5.95;2.40;;;19.30;54.90;;;18.55;59.82;96202.16;4994145;28;20026;-67
2023/06/27 01:03:49;;;;;;;5.80;2.88;;;19.20;54.80;;;18.50;59.91;96211.91;4966497;28;20076;-66
2023/06/27 01:06:28;;;;;;;5.10;2.08;;;19.20;54.70;;;18.46;60.31;96227.56;4969165;28;20026;-66
2023/06/27 01:09:05;;;;;;;4.90;2.05;;;19.10;55.20;;;18.41;60.44;96221.31;4939151;28;20043;-66
2023/06/27 01:11:38;;;;;;;5.63;2.10;;;19.10;55.30;;;18.35;60.68;96226.53;4989919;28;20494;-66
2023/06/27 01:14:03;;;;;;;4.45;2.00;;;19.00;55.40;;;18.31;60.40;96217.38;4965293;28;20089;-66
2023/06/27 01:16:30;;;;;;;6.60;2.00;;;19.00;55.70;;;18.30;60.26;96226.41;4958176;28;20038;-65
2023/06/27 01:18:59;;;;;;;7.63;2.03;;;19.00;55.60;;;18.25;61.49;96231.63;4992229;28;20033;-67
2023/06/27 01:21:28;;;;;;;6.72;2.33;;;18.90;55.50;;;18.18;60.52;96228.31;4961065;28;20035;-66
2023/06/27 01:24:03;;;;;;;5.57;2.15;;;18.80;55.70;;;18.17;61.51;96237.34;4967084;28;20093;-66
2023/06/27 01:26:29;;;;;;;5.65;1.60;;;18.90;55.80;;;18.16;60.74;96240.22;4984426;28;20030;-66
2023/06/27 01:28:55;;;;;;;2.42;1.60;;;18.90;55.70;;;18.17;60.78;96244.50;4979866;28;20525;-66
2023/06/27 01:31:39;;;;;;;4.10;1.90;;;18.90;56.10;;;18.16;61.82;96253.53;4991150;28;20036;-66
2023/06/27 01:34:29;;;;;;;7.07;2.17;;;18.80;55.80;;;18.12;61.76;96245.22;5000336;28;20087;-65
2023/06/27 01:37:19;;;;;;;5.13;2.07;;;18.70;55.80;;;18.09;62.69;96253.63;4990019;28;20033;-66
2023/06/27 01:39:49;;;;;;;5.65;2.20;;;18.80;56.10;;;18.08;62.16;96257.34;4971814;28;20646;-67
2023/06/27 01:42:18;;;;;;;4.10;1.80;;;18.80;56.10;;;18.07;62.57;96250.41;4942483;28;20453;-66
2023/06/27 01:44:46;;;;;;;5.80;2.20;;;18.80;56.10;;;18.07;62.30;96247.75;4973323;28;20522;-67
2023/06/27 01:47:12;;;;;;;3.75;1.70;;;18.80;56.00;;;18.05;61.31;96255.97;4946685;28;20034;-66
2023/06/27 01:49:38;;;;;;;4.53;2.08;;;18.90;56.50;;;18.05;61.76;96247.97;4981675;28;20042;-67
2023/06/27 01:52:05;;;;;;;7.28;1.77;;;18.80;56.10;;;18.05;61.80;96250.63;4983397;28;20501;-66
2023/06/27 01:54:31;;;;;;;5.97;2.00;;;18.80;56.70;;;18.06;61.54;96246.13;4969980;28;20035;-66
2023/06/27 01:56:56;;;;;;;4.93;1.65;;;18.80;56.20;;;18.05;62.24;96247.16;4976015;28;20458;-66
2023/06/27 01:59:22;;;;;;;5.05;2.20;;;18.70;56.30;;;18.03;62.52;96241.25;4965600;28;20496;-66
2023/06/27 02:01:48;;;;;;;3.00;1.70;;;18.80;56.40;;;17.99;62.21;96240.94;4973549;28;20517;-67
2023/06/27 02:04:13;;;;;;;5.13;2.00;;;18.80;56.80;;;17.99;62.40;96234.78;4956201;28;20038;-65
2023/06/27 02:06:39;;;;;;;3.65;1.83;;;18.80;56.50;;;17.98;62.55;96233.16;4988360;28;20057;-67
2023/06/27 02:09:05;;;;;;;6.93;2.45;;;18.80;56.60;;;17.91;62.86;96221.84;4992738;28;20030;-66
2023/06/27 02:11:31;;;;;;;4.47;2.50;;;18.70;56.40;;;17.88;62.39;96232.94;4997417;28;20041;-66
2023/06/27 02:13:56;;;;;;;7.38;2.30;;;18.60;56.60;;;17.88;62.34;96232.94;4997239;28;20026;-65
2023/06/27 02:16:22;;;;;;;5.65;2.25;;;18.60;56.60;;;17.83;62.75;96230.97;4977296;28;20037;-66
2023/06/27 02:18:48;;;;;;;5.82;2.13;;;18.50;57.20;;;17.79;63.43;96234.31;5005744;28;20034;-66
2023/06/27 02:21:14;;;;;;;5.40;2.20;;;18.50;57.50;;;17.77;63.91;96228.44;5005020;28;20119;-66
2023/06/27 02:23:40;;;;;;;3.83;1.80;;;18.60;57.50;;;17.72;63.89;96235.25;4997224;28;20045;-66
2023/06/27 02:26:06;;;;;;;6.50;2.40;;;18.60;57.30;;;17.69;63.47;96242.88;4972611;28;20031;-65
2023/06/27 02:28:32;;;;;;;5.78;2.00;;;18.50;57.40;;;17.67;63.01;96232.47;4970616;28;20109;-66
2023/06/27 02:30:57;;;;;;;6.03;2.03;;;18.50;57.50;;;17.57;63.65;96236.69;4981129;28;20121;-66
2023/06/27 02:33:23;;;;;;;4.13;1.83;;;18.40;57.50;;;17.57;64.25;96242.81;4981321;28;20117;-67
2023/06/27 02:35:49;;;;;;;4.45;1.70;;;18.30;58.10;;;17.53;63.74;96248.84;4947653;28;20509;-66
2023/06/27 02:38:14;;;;;;;5.70;2.15;;;18.20;57.80;;;17.47;63.63;96242.59;4997902;28;20541;-66
2023/06/27 02:40:40;;;;;;;5.65;2.00;;;18.30;58.00;;;17.48;63.58;96254.03;5007535;28;20494;-67
2023/06/27 02:43:06;;;;;;;6.32;1.90;;;18.20;57.70;;;17.46;64.17;96256.94;4989510;28;20029;-66
2023/06/27 02:45:32;;;;;;;5.80;2.17;;;18.20;57.80;;;17.47;64.10;96249.75;4972046;28;20030;-66
2023/06/27 02:47:58;;;;;;;5.72;2.15;;;18.20;57.90;;;17.45;64.53;96255.31;4976676;28;20062;-66
2023/06/27 02:50:23;;;;;;;5.00;1.92;;;18.20;58.10;;;17.44;64.78;96253.69;4972096;28;20394;-66
2023/06/27 02:52:49;;;;;;;7.07;2.58;;;18.30;58.00;;;17.45;64.92;96255.31;4977633;28;20129;-66
2023/06/27 02:55:15;;;;;;;3.97;1.90;;;18.30;57.90;;;17.47;64.30;96252.41;4980575;28;20038;-65
2023/06/27 02:57:41;;;;;;;7.35;2.03;;;18.40;57.90;;;17.46;64.93;96251.63;4939517;28;20042;-66
2023/06/27 03:00:07;;;;;;;3.95;1.80;;;18.30;58.10;;;17.48;64.64;96249.53;4987534;28;20033;-65
2023/06/27 03:02:33;;;;;;;5.93;1.90;;;18.40;58.00;;;17.49;64.46;96256.47;4970245;28;20038;-66
2023/06/27 03:04:58;;;;;;;5.40;1.70;;;18.40;58.20;;;17.50;65.52;96259.94;4969579;28;20058;-67
2023/06/27 03:07:24;;;;;;;5.22;2.03;;;18.40;58.10;;;17.47;64.56;96261.22;4980234;28;20112;-66
2023/06/27 03:09:50;;;;;;;7.40;2.40;;;18.40;58.00;;;17.48;65.16;96260.16;4973546;28;20030;-66
2023/06/27 03:12:16;;;;;;;5.57;2.08;;;18.30;57.80;;;17.46;65.48;96251.63;5006832;28;20057;-69
2023/06/27 03:14:41;;;;;;;11.40;8.05;;;18.30;58.40;;;17.43;66.08;96252.88;4991718;28;20035;-65
2023/06/27 03:17:07;;;;;;;17.63;11.40;;;18.30;59.00;;;17.44;65.42;96256.34;4987271;28;20045;-65
2023/06/27 03:19:33;;;;;;;7.18;4.47;;;18.40;58.90;;;17.46;65.43;96272.88;4975668;28;20031;-66
2023/06/27 03:21:59;;;;;;;6.30;2.55;;;18.40;58.80;;;17.43;65.34;96273.34;4966038;28;20108;-66
2023/06/27 03:24:25;;;;;;;12.15;7.35;;;18.30;58.50;;;17.41;65.99;96275.38;4956031;28;20162;-67
2023/06/27 03:26:50;;;;;;;7.15;3.28;;;18.30;59.00;;;17.40;65.51;96276.44;4985109;28;20038;-66
2023/06/27 03:29:16;;;;;;;8.77;5.85;;;18.20;58.60;;;17.38;66.00;96276.66;4961839;28;20042;-66
2023/06/27 03:31:42;;;;;;;7.50;3.30;;;18.30;58.80;;;17.39;65.89;96280.13;4991004;28;20077;-65
2023/06/27 03:34:07;;;;;;;7.82;3.75;;;18.30;58.90;;;17.41;66.47;96281.53;4990631;28;20038;-65
2023/06/27 03:36:33;;;;;;;8.75;5.43;;;18.40;59.20;;;17.40;66.91;96284.41;4986652;28;20104;-65
2023/06/27 03:38:59;;;;;;;14.70;10.02;;;18.30;59.40;;;17.39;66.74;96286.25;4985259;28;20104;-65
2023/06/27 03:41:25;;;;;;;8.02;5.20;;;18.40;59.20;;;17.39;66.46;96283.59;4974474;28;20105;-67
2023/06/27 03:43:51;;;;;;;8.07;4.57;;;18.30;58.80;;;17.41;66.14;96286.03;4969488;28;20033;-66
2023/06/27 03:46:16;;;;;;;12.75;8.68;;;18.30;58.90;;;17.41;66.40;96291.34;4986544;28;20514;-67
2023/06/27 03:48:42;;;;;;;8.18;3.38;;;18.40;58.50;;;17.40;66.34;96287.88;4996676;28;20223;-67
2023/06/27 03:51:08;;;;;;;6.32;3.08;;;18.30;58.60;;;17.41;66.41;96291.34;4979920;28;20046;-66
2023/06/27 03:53:34;;;;;;;8.95;3.70;;;18.30;58.70;;;17.40;66.05;96284.41;4978631;28;20038;-66
2023/06/27 03:56:01;;;;;;;3.80;2.03;;;18.40;58.70;;;17.41;66.79;96289.50;4998877;28;20037;-67
2023/06/27 03:58:27;;;;;;;4.53;1.83;;;18.40;58.30;;;17.42;67.09;96285.00;4980215;28;20068;-67
2023/06/27 04:00:53;;;;;;;3.92;2.10;;;18.50;58.60;;;17.43;66.16;96278.66;4993527;28;20031;-69
2023/06/27 04:03:19;;;;;;;4.57;1.98;;;18.50;58.70;;;17.45;66.73;96282.72;4991234;28;20508;-65
2023/06/27 04:05:47;;;;;;;4.47;1.80;;;18.50;58.50;;;17.47;66.71;96285.16;4977343;28;20192;-65
2023/06/27 04:08:13;;;;;;;6.03;2.05;;;18.60;58.80;;;17.49;66.62;96283.06;4997007;28;20089;-65
2023/06/27 04:10:42;;;;;;;4.35;2.00;;;18.50;58.60;;;17.50;66.29;96286.53;4959417;28;20038;-65
2023/06/27 04:13:08;;;;;;;10.10;2.90;;;18.60;58.80;;;17.48;66.45;96292.09;4992135;28;20093;-67
2023/06/27 04:15:39;;;;;;;7.32;2.65;;;18.40;58.90;;;17.47;67.26;96290.47;4978016;28;20022;-67
2023/06/27 04:18:10;;;;;;;8.70;2.38;;;18.50;58.90;;;17.44;66.83;96286.41;4993112;28;20038;-67
2023/06/27 04:20:36;;;;;;;4.53;2.00;;;18.50;59.10;;;17.40;66.36;96289.72;4974630;28;20042;-68
2023/06/27 04:23:03;;;;;;;5.05;1.90;;;18.40;58.60;;;17.43;66.69;96289.31;4996015;28;20042;-66
2023/06/27 04:25:33;;;;;;;4.90;2.05;;;18.40;58.90;;;17.42;67.32;96292.97;4993201;28;20030;-66
2023/06/27 04:27:59;;;;;;;5.93;2.00;;;18.40;58.70;;;17.43;66.70;96291.97;4960785;28;20418;-66
2023/06/27 04:30:25;;;;;;;5.10;2.03;;;18.50;59.30;;;17.42;67.03;96292.97;4979949;28;20070;-67
2023/06/27 04:32:50;;;;;;;6.95;2.50;;;18.50;59.20;;;17.45;67.23;96303.19;4963661;28;20030;-66
2023/06/27 04:35:17;;;;;;;6.53;1.98;;;18.50;58.90;;;17.44;66.98;96307.69;4985656;28;20058;-66
2023/06/27 04:37:44;;;;;;;4.72;1.90;;;18.50;58.70;;;17.42;67.02;96300.94;4984046;28;20034;-66
2023/06/27 04:40:10;;;;;;;4.05;1.75;;;18.40;58.90;;;17.44;67.38;96301.56;4974102;28;20716;-66
2023/06/27 04:42:37;;;;;;;8.43;3.22;;;18.60;58.90;;;17.47;67.52;96306.41;4996973;28;20047;-67
2023/06/27 04:45:03;;;;;;;5.43;2.03;;;18.60;58.80;;;17.48;67.26;96313.34;4975196;28;20125;-65
2023/06/27 04:47:29;;;;;;;6.13;2.30;;;18.60;59.00;;;17.50;66.84;96311.28;4989633;28;20101;-67
2023/06/27 04:49:54;;;;;;;10.70;2.53;;;18.60;58.60;;;17.49;66.77;96322.16;4978711;28;20126;-67
2023/06/27 04:52:20;;;;;;;8.07;2.50;;;18.60;58.80;;;17.47;66.39;96317.06;4980186;28;20522;-66
2023/06/27 04:54:50;;;;;;;7.25;1.95;;;18.50;58.30;;;17.47;67.54;96326.88;4961988;28;20050;-66
2023/06/27 04:57:27;;;;;;;5.55;1.98;;;18.40;58.80;;;17.48;68.19;96334.63;4981946;28;20030;-67
2023/06/27 04:59:53;;;;;;;5.50;2.05;;;18.60;59.10;;;17.53;67.51;96331.28;4955915;28;20038;-66
2023/06/27 05:02:18;;;;;;;6.35;1.92;;;18.70;59.20;;;17.55;67.54;96330.03;4959006;28;20042;-67
2023/06/27 05:04:44;;;;;;;6.55;2.50;;;18.70;59.20;;;17.61;66.91;96334.44;4966120;28;20034;-67
2023/06/27 05:07:11;;;;;;;6.10;2.00;;;18.70;58.00;;;17.62;67.25;96330.72;4976856;28;20061;-70
2023/06/27 05:09:36;;;;;;;6.32;2.38;;;18.80;58.30;;;17.67;67.31;96333.56;4941877;28;20022;-66
2023/06/27 05:12:02;;;;;;;6.57;3.47;;;18.80;58.50;;;17.71;67.52;96336.59;4981094;28;20109;-67
2023/06/27 05:14:28;;;;;;;5.95;3.85;;;18.90;58.00;;;17.73;67.02;96335.31;4994133;28;20037;-67
2023/06/27 05:16:54;;;;;;;6.65;2.35;;;18.80;58.30;;;17.77;67.21;96326.88;4991939;28;20029;-65
2023/06/27 05:19:20;;;;;;;5.72;2.53;;;18.90;58.30;;;17.81;66.38;96336.00;4959947;28;20034;-67
2023/06/27 05:21:46;;;;;;;8.32;2.92;;;18.80;58.00;;;17.80;67.02;96331.72;4999699;28;20588;-65
2023/06/27 05:24:11;;;;;;;6.55;2.08;;;18.90;58.00;;;17.83;66.50;96321.44;4970662;28;20034;-67
2023/06/27 05:26:37;;;;;;;7.35;1.95;;;19.00;57.40;;;17.86;66.50;96326.28;4977202;28;20131;-66
2023/06/27 05:29:03;;;;;;;4.65;1.88;;;19.10;57.80;;;17.90;67.25;96329.34;4976423;28;20035;-66
2023/06/27 05:31:29;;;;;;;5.90;2.45;;;19.10;57.80;;;17.94;66.38;96338.47;4990444;28;20041;-67
2023/06/27 05:33:55;;;;;;;5.68;2.35;;;19.20;57.60;;;17.98;66.36;96345.78;4997188;28;20030;-68
2023/06/27 05:36:21;;;;;;;9.38;2.08;;;19.20;57.40;;;18.01;67.36;96339.19;4994925;28;20526;-67
2023/06/27 05:38:47;;;;;;;5.13;1.73;;;19.30;57.60;;;18.05;66.78;96340.34;4966367;28;20041;-66
2023/06/27 05:41:17;;;;;;;5.93;2.05;;;19.20;57.30;;;18.08;66.67;96345.19;4956611;28;20038;-67
2023/06/27 05:43:46;;;;;;;4.68;2.38;;;19.30;57.10;;;18.08;67.07;96329.22;4956983;28;20035;-66
2023/06/27 05:46:12;;;;;;;7.38;2.25;;;19.40;57.30;;;18.15;66.23;96334.47;4978200;28;20053;-66
2023/06/27 05:48:38;;;;;;;7.80;2.45;;;19.40;57.40;;;18.16;66.26;96331.56;4939544;28;20121;-67
2023/06/27 05:51:03;;;;;;;7.95;2.22;;;19.50;57.60;;;18.20;66.81;96338.03;4979764;28;20502;-67
2023/06/27 05:53:29;;;;;;;10.90;2.20;;;19.50;57.30;;;18.24;66.21;96333.06;4962689;28;20034;-67
2023/06/27 05:55:55;;;;;;;5.43;2.03;;;19.50;57.50;;;18.26;67.45;96331.78;4987925;28;20038;-65
2023/06/27 05:58:21;;;;;;;4.68;2.05;;;19.50;57.50;;;18.30;66.46;96330.28;4981801;28;20042;-66
2023/06/27 06:00:46;;;;;;;7.03;2.10;;;19.50;57.50;;;18.33;66.57;96329.84;4965954;28;20106;-68
2023/06/27 06:03:13;;;;;;;4.68;1.85;;;19.60;56.60;;;18.32;66.07;96322.06;4979354;28;20085;-66
2023/06/27 06:05:39;;;;;;;6.05;2.15;;;19.60;56.80;;;18.36;65.66;96326.72;4955238;28;20038;-66
2023/06/27 06:08:04;;;;;;;7.75;2.30;;;19.60;57.00;;;18.41;66.56;96322.53;4977509;28;20566;-68
2023/06/27 06:10:30;;;;;;;8.68;1.80;;;19.60;56.70;;;18.45;66.45;96321.00;4946291;28;20026;-66
2023/06/27 06:12:56;;;;;;;4.90;1.90;;;19.60;56.50;;;18.45;65.61;96319.16;4960075;28;20094;-67
2023/06/27 06:15:22;;;;;;;6.47;2.03;;;19.70;56.10;;;18.49;66.18;96320.31;4970111;28;20066;-67
2023/06/27 06:17:47;;;;;;;8.30;2.03;;;19.80;56.60;;;18.48;65.57;96329.34;4972378;28;20062;-66
2023/06/27 06:20:13;;;;;;;6.25;1.80;;;19.60;56.00;;;18.48;64.55;96329.34;4997601;28;20525;-67
2023/06/27 06:22:39;;;;;;;6.10;2.05;;;19.60;56.20;;;18.45;66.16;96326.34;4990877;28;20038;-67
2023/06/27 06:25:05;;;;;;;6.15;2.10;;;19.60;56.80;;;18.45;64.93;96339.66;4971848;28;20466;-67
2023/06/27 06:27:31;;;;;;;6.32;2.13;;;19.50;56.80;;;18.42;65.68;96340.94;4990559;28;20415;-66
2023/06/27 06:29:56;;;;;;;3.97;1.90;;;19.60;57.00;;;18.42;65.33;96338.28;4989945;28;20133;-67
2023/06/27 06:32:22;;;;;;;5.30;1.95;;;19.60;56.90;;;18.45;65.62;96347.66;4990581;28;20515;-69
2023/06/27 06:34:48;;;;;;;5.18;2.22;;;19.60;57.40;;;18.46;65.54;96341.28;4973156;28;20027;-66
2023/06/27 06:37:14;;;;;;;3.97;2.05;;;19.70;56.70;;;18.49;66.02;96346.13;4990219;28;20053;-67
2023/06/27 06:39:41;;;;;;;4.72;1.92;;;19.80;56.30;;;18.55;64.71;96350.53;4973452;28;20038;-67
2023/06/27 06:42:08;;;;;;;6.80;1.70;;;19.70;56.40;;;18.59;65.40;96357.84;4974019;28;20034;-67
2023/06/27 06:44:33;;;;;;;5.38;2.22;;;19.90;56.30;;;18.65;65.13;96358.78;4988159;28;20027;-66
2023/06/27 06:46:59;;;;;;;6.30;2.28;;;19.80;55.70;;;18.68;65.23;96363.66;4990214;28;20062;-68
2023/06/27 06:49:25;;;;;;;7.63;2.15;;;20.00;56.00;;;18.74;64.42;96365.38;4990233;28;20038;-67
2023/06/27 06:51:51;;;;;;;4.68;2.03;;;20.00;55.80;;;18.78;64.62;96355.06;4990628;28;20556;-68
2023/06/27 06:54:17;;;;;;;6.70;2.08;;;20.10;56.10;;;18.82;64.97;96359.72;4990371;28;20034;-69
2023/06/27 06:56:43;;;;;;;6.25;1.85;;;20.20;55.90;;;18.88;65.26;96348.09;4974533;28;20030;-66
2023/06/27 06:59:09;;;;;;;6.32;2.30;;;20.20;55.30;;;18.92;64.36;96351.09;4972440;28;20057;-66
2023/06/27 07:01:34;;;;;;;6.13;2.03;;;20.50;55.00;;;19.08;65.52;96360.22;4972933;28;20053;-67
2023/06/27 07:04:03;;;;;;;4.88;2.35;;;20.70;55.30;;;19.21;64.70;96359.94;4973125;28;20026;-66
2023/06/27 07:06:29;;;;;;;5.03;2.15;;;21.00;54.80;;;19.33;63.99;96360.72;4987549;28;20038;-67
2023/06/27 07:08:55;;;;;;;7.78;2.08;;;21.10;53.20;;;19.47;63.59;96359.41;4973343;28;20544;-67
2023/06/27 07:11:20;;;;;;;5.47;2.50;;;21.20;53.80;;;19.61;63.90;96351.94;4987107;28;20071;-67
2023/06/27 07:13:46;;;;;;;8.65;2.20;;;21.40;53.00;;;19.72;62.51;96345.75;4990277;28;20827;-66
2023/06/27 07:16:12;;;;;;;6.38;2.38;;;21.60;52.50;;;19.83;62.38;96331.50;4987799;28;20101;-68
2023/06/27 07:18:37;;;;;;;5.72;1.98;;;21.70;50.50;;;19.95;60.61;96326.09;4975405;28;20624;-67
2023/06/27 07:21:03;;;;;;;4.93;1.85;;;21.80;50.00;;;20.08;60.33;96333.78;4972659;28;20030;-68
2023/06/27 07:23:29;;;;;;;4.78;1.98;;;21.90;49.90;;;20.16;58.89;96325.38;4956723;28;20038;-68
2023/06/27 07:25:55;;;;;;;6.20;2.75;;;21.90;48.60;;;20.27;58.70;96333.53;4986471;28;20046;-67
2023/06/27 07:28:20;;;;;;;84.57;9.23;;;22.10;49.40;;;20.32;58.79;96325.59;4993568;28;20180;-65
2023/06/27 07:30:47;;;;;;;28.85;4.40;;;22.10;48.70;;;20.39;58.80;96320.91;4987720;28;20129;-66
2023/06/27 07:33:16;;;;;;;8.55;2.20;;;22.20;49.40;;;20.48;58.88;96319.47;4988643;28;20602;-65
2023/06/27 07:35:43;;;;;;;5.10;1.80;;;22.40;48.70;;;20.57;57.50;96325.97;4941393;28;20046;-66
2023/06/27 07:38:09;;;;;;;4.65;1.67;;;22.40;48.10;;;20.67;57.23;96312.78;4986545;28;20026;-66
2023/06/27 07:40:35;;;;;;;4.10;1.80;;;22.60;47.10;;;20.78;56.89;96319.84;4956800;28;20450;-67
2023/06/27 07:43:03;;;;;;;7.20;1.80;;;22.70;47.80;;;20.88;56.69;96321.06;4989921;28;20542;-67
2023/06/27 07:45:29;;;;;;;4.60;1.80;;;22.80;47.70;;;20.94;56.02;96323.53;4972350;28;20121;-67
2023/06/27 07:47:55;;;;;;;4.78;1.95;;;22.70;46.50;;;21.04;55.83;96322.84;4990417;28;20077;-67
2023/06/27 07:50:20;;;;;;;6.28;2.38;;;22.90;47.20;;;21.14;56.06;96320.31;4988857;28;20040;-67
2023/06/27 07:52:46;;;;;;;6.18;1.90;;;23.10;46.80;;;21.24;55.76;96320.44;4987740;28;20085;-67
2023/06/27 07:55:12;;;;;;;4.85;1.63;;;23.20;46.30;;;21.31;55.25;96317.59;4974614;28;20039;-70
2023/06/27 07:57:38;;;;;;;7.15;1.98;;;23.40;45.50;;;21.40;54.51;96308.84;4944260;28;20054;-67
2023/06/27 08:00:04;;;;;;;4.22;1.58;;;23.40;45.80;;;;;;4994046;28;20030;-66
2023/06/27 08:02:30;;;;;;;2.92;1.35;;;23.70;45.50;;;21.69;53.68;96305.91;4974774;28;20038;-67
2023/06/27 08:04:55;;;;;;;4.00;1.40;;;24.00;43.40;;;21.84;53.06;96305.25;4976481;28;20101;-66
2023/06/27 08:07:21;;;;;;;3.72;1.42;;;24.10;43.60;;;21.99;51.80;96308.06;4974261;28;20391;-68
2023/06/27 08:09:47;;;;;;;2.63;1.40;;;24.50;42.10;;;22.13;51.42;96311.94;4993452;28;20073;-68
2023/06/27 08:12:12;;;;;;;10.70;2.20;;;24.60;42.20;;;22.28;50.96;96309.38;4993345;28;20061;-66
2023/06/27 08:14:40;;;;;;;3.97;1.60;;;24.90;41.50;;;22.47;51.34;96291.00;4993412;28;20054;-67
2023/06/27 08:17:06;;;;;;;5.22;1.45;;;25.20;41.30;;;22.68;50.53;96291.91;4975476;28;20506;-68
2023/06/27 08:19:32;;;;;;;3.97;1.40;;;25.60;41.30;;;22.92;50.87;96287.75;4983806;28;20026;-68
2023/06/27 08:21:58;;;;;;;3.45;1.38;;;25.80;40.70;;;23.08;49.12;96279.75;4958829;28;20038;-67
2023/06/27 08:24:23;;;;;;;3.00;1.30;;;25.80;39.10;;;23.20;48.34;96277.66;4963761;28;20511;-67
2023/06/27 08:26:49;;;;;;;4.35;1.40;;;26.00;39.40;;;23.42;49.24;96280.13;4956461;28;20054;-68
2023/06/27 08:29:16;;;;;;;7.63;1.70;;;26.40;40.60;;;23.68;48.33;96268.38;4944480;28;20030;-66
2023/06/27 08:31:42;;;;;;;4.40;2.05;;;26.70;39.20;;;23.89;48.55;96260.31;4958437;28;20468;-68
2023/06/27 08:34:08;;;;;;;3.75;2.00;;;26.80;38.60;;;24.07;48.52;96270.53;4963912;28;20030;-66
2023/06/27 08:36:33;;;;;;;5.00;1.90;;;27.20;39.10;;;24.27;48.34;96273.19;4969263;28;20033;-67
2023/06/27 08:39:01;;;;;;;4.25;1.50;;;27.40;38.60;;;24.49;47.91;96272.09;4997488;28;20121;-67
2023/06/27 08:41:27;;;;;;;4.88;1.60;;;27.60;38.10;;;24.70;45.94;96269.09;4986461;28;20022;-66
2023/06/27 08:43:54;;;;;;;5.30;1.70;;;27.90;35.60;;;24.87;45.17;96263.34;4981264;28;20517;-67
2023/06/27 08:46:20;;;;;;;4.13;1.60;;;28.00;34.90;;;25.00;44.03;96254.72;4982422;28;20121;-67
2023/06/27 08:48:46;;;;;;;3.53;1.50;;;28.10;35.00;;;25.23;44.17;96249.75;4984243;28;20460;-67
2023/06/27 08:51:13;;;;;;;3.72;1.65;;;28.50;35.00;;;25.42;42.92;96239.94;4944308;28;20038;-67
2023/06/27 08:53:39;;;;;;;4.13;1.50;;;28.50;33.80;;;25.56;42.83;96232.81;4974339;28;20442;-67
2023/06/27 08:56:11;;;;;;;4.72;1.63;;;28.70;33.90;;;25.73;40.36;96210.09;4975204;28;20045;-68
2023/06/27 08:58:45;;;;;;;3.75;1.17;;;28.60;33.90;;;25.91;39.96;96206.72;4980373;28;20030;-66
2023/06/27 09:01:11;;;;;;;5.30;1.75;;;28.80;33.80;;;26.05;41.18;96215.75;4963809;28;20534;-65
2023/06/27 09:03:37;;;;;;;6.18;1.38;;;28.90;33.60;;;26.21;40.59;96211.81;4972994;28;20034;-67
2023/06/27 09:06:05;;;;;;;2.75;1.42;;;29.10;32.90;;;26.42;39.66;96220.50;4971226;28;20030;-67
2023/06/27 09:08:34;;;;;;;3.72;1.48;;;29.30;32.40;;;26.60;39.44;96208.19;4979403;28;20053;-66
2023/06/27 09:11:00;;;;;;;2.53;1.40;;;29.40;33.70;;;26.66;39.53;96217.00;4993653;28;20033;-67
2023/06/27 09:13:26;;;;;;;10.88;4.05;;;29.00;32.90;;;26.62;40.11;96215.97;4963747;28;20037;-68
2023/06/27 09:15:52;;;;;;;4.47;2.40;;;29.20;33.10;;;26.73;38.80;96207.50;4981518;28;20113;-68
2023/06/27 09:18:18;;;;;;;9.45;4.85;;;29.40;31.70;;;26.90;39.02;96204.28;4989639;28;20158;-68
2023/06/27 09:20:44;;;;;;;5.18;1.80;;;29.60;31.90;;;27.04;38.15;96210.63;4970718;28;20064;-68
2023/06/27 09:23:10;;;;;;;4.82;1.40;;;29.80;31.40;;;27.14;38.02;96196.16;4980083;28;20502;-67
2023/06/27 09:25:36;;;;;;;3.53;1.50;;;29.80;30.70;;;27.32;36.92;96203.47;4989424;28;20041;-68
2023/06/27 09:28:16;;;;;;;5.75;1.27;;;30.00;31.20;;;27.56;35.31;96170.13;4981226;28;20031;-67
2023/06/27 09:30:56;;;;;;;3.28;1.58;;;30.40;30.40;;;27.78;34.43;96170.31;4984968;28;20038;-67
2023/06/27 09:33:23;;;;;;;5.18;1.70;;;30.70;29.50;;;28.01;36.46;96182.88;4971127;28;20043;-67
2023/06/27 09:35:50;;;;;;;4.35;1.58;;;31.10;29.70;;;28.31;35.90;96183.47;4978327;28;20030;-67
2023/06/27 09:38:16;;;;;;;5.00;1.42;;;31.40;28.40;;;28.52;34.90;96179.28;4974610;28;20413;-68
2023/06/27 09:40:42;;;;;;;5.40;1.50;;;31.40;28.40;;;28.66;35.46;96176.53;4981916;28;20054;-68
2023/06/27 09:43:08;;;;;;;4.85;1.75;;;31.30;29.40;;;28.70;35.48;96168.59;4957962;28;20096;-67
2023/06/27 09:45:34;;;;;;;3.25;1.73;;;31.00;30.20;;;28.53;34.84;96172.75;4971915;28;20042;-67
2023/06/27 09:48:00;;;;;;;5.43;1.60;;;30.60;30.00;;;28.32;35.21;96176.97;4964572;28;20410;-68
2023/06/27 09:50:30;;;;;;;4.28;1.77;;;30.50;30.90;;;28.09;34.30;96162.50;4971780;28;20579;-68
2023/06/27 09:53:01;;;;;;;;;;;29.80;31.10;;;27.77;34.79;96160.63;4971334;28;20038;-68
2023/06/27 09:55:27;;;;;;;3.55;1.40;;;29.40;31.50;;;27.53;36.57;96182.34;4986652;28;19922;-67
2023/06/27 09:57:53;;;;;;;5.88;1.50;;;29.10;33.20;;;27.34;36.46;96184.25;4973578;28;20401;-68
2023/06/27 10:00:22;;;;;;;3.42;1.42;;;29.00;33.40;;;27.14;36.92;96185.34;5000120;28;20042;-67
2023/06/27 10:02:48;;;;;;;6.57;1.45;;;28.80;33.80;;;27.01;37.21;96188.78;4986319;28;20494;-69
2023/06/27 10:05:15;;;;;;;3.95;1.33;;;28.60;35.10;;;26.82;37.02;96184.16;4962559;28;20031;-67
2023/06/27 10:07:43;;;;;;;3.67;1.25;;;28.50;33.70;;;26.72;37.88;96194.28;4937715;28;20474;-67
2023/06/27 10:10:09;;;;;;;7.88;2.25;;;28.60;34.30;;;26.63;37.00;96186.00;4988293;28;20555;-67
2023/06/27 10:12:35;;;;;;;15.20;4.18;;;28.50;34.00;;;26.55;37.75;96183.97;4976229;28;20568;-67
2023/06/27 10:15:00;;;;;;;9.95;2.45;;;28.50;35.20;;;26.54;37.89;96193.16;4971933;28;20064;-67
2023/06/27 10:17:28;;;;;;;5.28;1.73;;;28.50;34.70;;;26.64;38.20;96187.63;4964440;28;20035;-67